createdAt,value
2023-06-10T06:05:27.480Z,3.23
2023-06-10T06:10:29.609Z,3.60
2023-06-10T06:15:31.739Z,3.35
2023-06-10T06:20:33.836Z,3.62
2023-06-10T06:25:36.754Z,5.20
2023-06-10T06:30:38.880Z,4.15
2023-06-10T06:35:41.332Z,4.28
2023-06-10T06:40:43.551Z,4.53
2023-06-10T06:45:46.260Z,4.40
2023-06-10T06:50:48.361Z,4.30
2023-06-10T06:55:50.475Z,5.90
2023-06-10T07:00:52.652Z,4.50
2023-06-10T07:05:54.877Z,5.40
2023-06-10T07:10:57.022Z,5.03
2023-06-10T07:15:59.168Z,5.80
2023-06-10T07:21:01.551Z,4.80
2023-06-10T07:26:03.857Z,5.40
2023-06-10T07:31:06.157Z,5.30
2023-06-10T07:36:08.543Z,5.68
2023-06-10T07:41:11.867Z,5.70
2023-06-10T07:46:14.053Z,5.87
2023-06-10T07:51:17.707Z,5.37
2023-06-10T07:56:21.799Z,6.18
2023-06-10T08:01:25.522Z,5.20
2023-06-10T08:06:27.754Z,5.40
2023-06-10T08:11:30.855Z,6.22
2023-06-10T08:16:33.066Z,6.12
2023-06-10T08:21:35.268Z,6.90
2023-06-10T08:26:37.586Z,6.70
2023-06-10T08:31:43.907Z,7.30
2023-06-10T08:36:46.656Z,6.47
2023-06-10T08:42:19.671Z,7.10
2023-06-10T08:47:24.382Z,7.30
2023-06-10T08:52:30.532Z,7.07
2023-06-10T08:57:32.661Z,7.20
2023-06-10T09:02:36.588Z,7.25
2023-06-10T09:07:39.679Z,7.18
2023-06-10T09:12:41.812Z,7.60
2023-06-10T09:17:44.534Z,7.25
2023-06-10T09:22:46.874Z,8.38
2023-06-10T09:27:55.322Z,8.63
2023-06-10T09:32:59.783Z,8.40
2023-06-10T09:38:03.456Z,8.05
2023-06-10T09:43:05.722Z,8.70
2023-06-10T09:48:08.111Z,8.50
2023-06-10T09:53:11.397Z,8.90
2023-06-10T09:58:13.515Z,9.45
2023-06-10T10:03:24.334Z,9.97
2023-06-10T10:08:26.860Z,10.05
2023-06-10T10:13:29.416Z,10.40
2023-06-10T10:18:32.716Z,10.57
2023-06-10T10:24:02.439Z,11.10
2023-06-10T10:29:21.145Z,9.50
2023-06-10T10:34:31.880Z,8.82
2023-06-10T10:39:36.293Z,9.40
2023-06-10T10:44:41.958Z,9.35
2023-06-10T10:49:46.123Z,7.70
2023-06-10T10:54:48.866Z,7.87
2023-06-10T10:59:52.686Z,8.85
2023-06-10T11:04:56.259Z,10.00
2023-06-10T11:10:15.174Z,9.37
2023-06-10T11:15:24.811Z,8.80
2023-06-10T11:20:46.278Z,10.80
2023-06-10T11:25:48.435Z,10.85
2023-06-10T11:30:58.741Z,7.60
2023-06-10T11:36:01.014Z,7.82
2023-06-10T11:41:04.126Z,9.13
2023-06-10T11:46:09.272Z,7.83
2023-06-10T11:51:11.492Z,13.02
2023-06-10T11:56:13.864Z,12.55
2023-06-10T12:01:28.263Z,12.40
2023-06-10T12:06:45.882Z,7.27
2023-06-10T12:11:53.507Z,4.97
2023-06-10T12:16:57.523Z,3.37
2023-06-10T12:22:02.223Z,3.37
2023-06-10T12:27:04.479Z,3.17
2023-06-10T12:32:08.493Z,2.58
2023-06-10T12:37:14.768Z,2.50
2023-06-10T12:42:16.962Z,3.10
2023-06-10T12:47:19.093Z,2.60
2023-06-10T12:52:21.319Z,2.90
2023-06-10T12:57:23.928Z,3.27
2023-06-10T13:02:26.024Z,3.10
2023-06-10T13:07:28.148Z,2.53
2023-06-10T13:12:38.319Z,2.50
2023-06-10T13:17:51.566Z,6.72
2023-06-10T13:22:53.918Z,7.78
2023-06-10T13:27:56.727Z,3.00
2023-06-10T13:32:58.942Z,3.10
2023-06-10T13:38:01.223Z,2.80
2023-06-10T13:43:03.750Z,3.00
2023-06-10T13:48:07.044Z,2.57
2023-06-10T13:53:09.205Z,2.70
2023-06-10T13:58:11.315Z,2.10
2023-06-10T14:03:13.511Z,3.30
2023-06-10T14:08:15.817Z,1.65
2023-06-10T14:13:18.519Z,1.90
2023-06-10T14:18:20.605Z,1.90
2023-06-10T14:23:22.767Z,2.20
2023-06-10T14:28:25.161Z,1.90
2023-06-10T14:33:27.279Z,2.07
2023-06-10T14:38:29.498Z,2.83
2023-06-10T14:43:31.725Z,2.20
2023-06-10T14:48:33.803Z,3.05
2023-06-10T14:53:36.015Z,2.87
2023-06-10T14:58:38.117Z,3.15
2023-06-10T15:03:40.290Z,3.15
2023-06-10T15:08:42.509Z,2.80
2023-06-10T15:13:44.696Z,4.82
2023-06-10T15:18:46.857Z,3.00
2023-06-10T15:23:49.000Z,2.27
2023-06-10T15:28:51.161Z,2.57
2023-06-10T15:33:53.274Z,1.70
2023-06-10T15:38:57.091Z,1.83
2023-06-10T15:44:02.263Z,2.03
2023-06-10T15:49:04.830Z,1.80
2023-06-10T15:54:06.963Z,1.83
2023-06-10T15:59:10.047Z,2.10
2023-06-10T16:04:12.255Z,1.83
2023-06-10T16:09:14.426Z,2.67
2023-06-10T16:14:16.558Z,1.97
2023-06-10T16:19:18.811Z,2.60
